sensor_id;sensor_type;location;lat;lon;timestamp;P1;durP1;ratioP1;P2;durP2;ratioP2
3995;SDS011;2012;49.794;9.722;2022-11-15T00:00:56;8.60;;;4.50;;
3995;SDS011;2012;49.794;9.722;2022-11-15T00:03:24;11.43;;;5.07;;
3995;SDS011;2012;49.794;9.722;2022-11-15T00:05:52;9.07;;;4.37;;
3995;SDS011;2012;49.794;9.722;2022-11-15T00:08:19;8.73;;;4.37;;
3995;SDS011;2012;49.794;9.722;2022-11-15T00:10:55;9.20;;;5.60;;
3995;SDS011;2012;49.794;9.722;2022-11-15T00:13:23;8.87;;;6.40;;
3995;SDS011;2012;49.794;9.722;2022-11-15T00:15:49;8.80;;;6.93;;
3995;SDS011;2012;49.794;9.722;2022-11-15T00:18:16;7.90;;;5.40;;
3995;SDS011;2012;49.794;9.722;2022-11-15T00:20:44;9.20;;;5.67;;
3995;SDS011;2012;49.794;9.722;2022-11-15T00:23:10;7.73;;;5.53;;
3995;SDS011;2012;49.794;9.722;2022-11-15T00:25:37;8.63;;;5.47;;
3995;SDS011;2012;49.794;9.722;2022-11-15T00:28:04;7.63;;;5.30;;
3995;SDS011;2012;49.794;9.722;2022-11-15T00:30:31;11.13;;;5.73;;
3995;SDS011;2012;49.794;9.722;2022-11-15T00:33:01;8.13;;;5.80;;
3995;SDS011;2012;49.794;9.722;2022-11-15T00:35:30;8.77;;;5.50;;
3995;SDS011;2012;49.794;9.722;2022-11-15T00:37:59;7.63;;;5.07;;
3995;SDS011;2012;49.794;9.722;2022-11-15T00:40:27;6.83;;;5.20;;
3995;SDS011;2012;49.794;9.722;2022-11-15T00:42:54;5.20;;;4.17;;
3995;SDS011;2012;49.794;9.722;2022-11-15T00:45:21;6.83;;;4.70;;
3995;SDS011;2012;49.794;9.722;2022-11-15T00:47:48;9.27;;;5.00;;
3995;SDS011;2012;49.794;9.722;2022-11-15T00:50:15;8.13;;;5.20;;
3995;SDS011;2012;49.794;9.722;2022-11-15T00:52:42;6.03;;;5.10;;
3995;SDS011;2012;49.794;9.722;2022-11-15T00:55:18;10.23;;;4.97;;
3995;SDS011;2012;49.794;9.722;2022-11-15T00:57:46;6.03;;;4.50;;
3995;SDS011;2012;49.794;9.722;2022-11-15T01:00:13;8.00;;;4.77;;
3995;SDS011;2012;49.794;9.722;2022-11-15T01:02:39;8.87;;;5.10;;
3995;SDS011;2012;49.794;9.722;2022-11-15T01:05:06;12.70;;;5.40;;
3995;SDS011;2012;49.794;9.722;2022-11-15T01:07:34;6.10;;;5.00;;
3995;SDS011;2012;49.794;9.722;2022-11-15T01:10:00;8.57;;;5.50;;
3995;SDS011;2012;49.794;9.722;2022-11-15T01:12:27;6.87;;;4.90;;
3995;SDS011;2012;49.794;9.722;2022-11-15T01:14:54;7.40;;;4.30;;
3995;SDS011;2012;49.794;9.722;2022-11-15T01:17:21;8.40;;;5.30;;
3995;SDS011;2012;49.794;9.722;2022-11-15T01:19:48;6.57;;;5.20;;
3995;SDS011;2012;49.794;9.722;2022-11-15T01:22:14;7.23;;;4.33;;
3995;SDS011;2012;49.794;9.722;2022-11-15T01:24:41;4.43;;;4.03;;
3995;SDS011;2012;49.794;9.722;2022-11-15T01:27:08;5.47;;;4.23;;
3995;SDS011;2012;49.794;9.722;2022-11-15T01:29:35;9.23;;;3.43;;
3995;SDS011;2012;49.794;9.722;2022-11-15T01:32:01;4.13;;;3.53;;
3995;SDS011;2012;49.794;9.722;2022-11-15T01:34:28;7.47;;;3.80;;
3995;SDS011;2012;49.794;9.722;2022-11-15T01:36:55;8.10;;;4.00;;
3995;SDS011;2012;49.794;9.722;2022-11-15T01:39:21;4.23;;;3.20;;
3995;SDS011;2012;49.794;9.722;2022-11-15T01:41:48;6.50;;;3.30;;
3995;SDS011;2012;49.794;9.722;2022-11-15T01:47:01;4.90;;;3.87;;
3995;SDS011;2012;49.794;9.722;2022-11-15T01:49:31;6.13;;;4.87;;
3995;SDS011;2012;49.794;9.722;2022-11-15T01:52:02;6.43;;;4.73;;
3995;SDS011;2012;49.794;9.722;2022-11-15T01:54:31;9.70;;;5.60;;
3995;SDS011;2012;49.794;9.722;2022-11-15T01:57:03;5.27;;;3.90;;
3995;SDS011;2012;49.794;9.722;2022-11-15T01:59:33;6.63;;;4.27;;
3995;SDS011;2012;49.794;9.722;2022-11-15T02:02:00;7.47;;;4.70;;
3995;SDS011;2012;49.794;9.722;2022-11-15T02:04:28;5.60;;;4.60;;
3995;SDS011;2012;49.794;9.722;2022-11-15T02:06:57;7.60;;;4.27;;
3995;SDS011;2012;49.794;9.722;2022-11-15T02:09:26;5.10;;;3.93;;
3995;SDS011;2012;49.794;9.722;2022-11-15T02:11:52;5.07;;;4.13;;
3995;SDS011;2012;49.794;9.722;2022-11-15T02:14:21;6.63;;;4.17;;
3995;SDS011;2012;49.794;9.722;2022-11-15T02:16:58;9.40;;;4.50;;
3995;SDS011;2012;49.794;9.722;2022-11-15T02:19:37;6.27;;;4.97;;
3995;SDS011;2012;49.794;9.722;2022-11-15T02:25:01;7.57;;;4.50;;
3995;SDS011;2012;49.794;9.722;2022-11-15T02:27:58;9.53;;;5.33;;
3995;SDS011;2012;49.794;9.722;2022-11-15T02:30:41;14.13;;;5.37;;
3995;SDS011;2012;49.794;9.722;2022-11-15T02:36:24;4.03;;;3.63;;
3995;SDS011;2012;49.794;9.722;2022-11-15T02:42:07;5.07;;;4.00;;
3995;SDS011;2012;49.794;9.722;2022-11-15T02:44:58;13.83;;;3.77;;
3995;SDS011;2012;49.794;9.722;2022-11-15T02:47:31;4.30;;;3.90;;
3995;SDS011;2012;49.794;9.722;2022-11-15T02:50:05;10.93;;;3.90;;
3995;SDS011;2012;49.794;9.722;2022-11-15T02:52:35;4.40;;;3.80;;
3995;SDS011;2012;49.794;9.722;2022-11-15T02:55:02;4.00;;;3.50;;
3995;SDS011;2012;49.794;9.722;2022-11-15T02:57:32;4.70;;;4.07;;
3995;SDS011;2012;49.794;9.722;2022-11-15T03:00:14;8.83;;;4.60;;
3995;SDS011;2012;49.794;9.722;2022-11-15T03:02:56;6.70;;;3.67;;
3995;SDS011;2012;49.794;9.722;2022-11-15T03:05:48;3.67;;;3.33;;
3995;SDS011;2012;49.794;9.722;2022-11-15T03:11:09;6.53;;;4.30;;
3995;SDS011;2012;49.794;9.722;2022-11-15T03:16:24;4.33;;;3.93;;
3995;SDS011;2012;49.794;9.722;2022-11-15T03:19:17;4.30;;;3.60;;
3995;SDS011;2012;49.794;9.722;2022-11-15T03:21:51;4.40;;;3.83;;
3995;SDS011;2012;49.794;9.722;2022-11-15T03:24:19;6.13;;;3.53;;
3995;SDS011;2012;49.794;9.722;2022-11-15T03:26:51;7.10;;;4.07;;
3995;SDS011;2012;49.794;9.722;2022-11-15T03:29:22;5.83;;;3.57;;
3995;SDS011;2012;49.794;9.722;2022-11-15T03:31:55;6.30;;;4.30;;
3995;SDS011;2012;49.794;9.722;2022-11-15T03:37:04;6.80;;;3.60;;
3995;SDS011;2012;49.794;9.722;2022-11-15T03:39:31;3.87;;;3.13;;
3995;SDS011;2012;49.794;9.722;2022-11-15T03:42:04;5.40;;;3.30;;
3995;SDS011;2012;49.794;9.722;2022-11-15T03:47:38;2.97;;;2.63;;
3995;SDS011;2012;49.794;9.722;2022-11-15T03:50:19;4.10;;;2.90;;
3995;SDS011;2012;49.794;9.722;2022-11-15T03:52:48;7.70;;;3.13;;
3995;SDS011;2012;49.794;9.722;2022-11-15T03:55:17;3.80;;;3.40;;
3995;SDS011;2012;49.794;9.722;2022-11-15T03:57:47;3.60;;;3.10;;
3995;SDS011;2012;49.794;9.722;2022-11-15T04:00:16;3.23;;;2.90;;
3995;SDS011;2012;49.794;9.722;2022-11-15T04:02:43;5.40;;;3.47;;
3995;SDS011;2012;49.794;9.722;2022-11-15T04:05:10;5.60;;;2.97;;
3995;SDS011;2012;49.794;9.722;2022-11-15T04:07:37;5.70;;;2.90;;
3995;SDS011;2012;49.794;9.722;2022-11-15T04:10:04;3.57;;;3.03;;
3995;SDS011;2012;49.794;9.722;2022-11-15T04:12:34;6.90;;;4.03;;
3995;SDS011;2012;49.794;9.722;2022-11-15T04:15:04;3.47;;;3.17;;
3995;SDS011;2012;49.794;9.722;2022-11-15T04:17:40;4.27;;;3.13;;
3995;SDS011;2012;49.794;9.722;2022-11-15T04:22:55;3.20;;;2.80;;
3995;SDS011;2012;49.794;9.722;2022-11-15T04:25:41;4.60;;;3.47;;
3995;SDS011;2012;49.794;9.722;2022-11-15T04:28:09;5.13;;;3.20;;
3995;SDS011;2012;49.794;9.722;2022-11-15T04:30:37;7.30;;;3.80;;
3995;SDS011;2012;49.794;9.722;2022-11-15T04:33:04;5.17;;;3.53;;
3995;SDS011;2012;49.794;9.722;2022-11-15T04:35:30;6.30;;;3.90;;
3995;SDS011;2012;49.794;9.722;2022-11-15T04:37:58;4.73;;;3.90;;
3995;SDS011;2012;49.794;9.722;2022-11-15T04:40:25;5.27;;;3.67;;
3995;SDS011;2012;49.794;9.722;2022-11-15T04:42:51;5.63;;;3.70;;
3995;SDS011;2012;49.794;9.722;2022-11-15T04:45:18;6.20;;;3.80;;
3995;SDS011;2012;49.794;9.722;2022-11-15T04:47:45;6.90;;;3.97;;
3995;SDS011;2012;49.794;9.722;2022-11-15T04:50:13;4.87;;;3.90;;
3995;SDS011;2012;49.794;9.722;2022-11-15T04:52:41;3.97;;;3.57;;
3995;SDS011;2012;49.794;9.722;2022-11-15T04:55:10;5.20;;;3.70;;
3995;SDS011;2012;49.794;9.722;2022-11-15T04:57:37;4.73;;;3.10;;
3995;SDS011;2012;49.794;9.722;2022-11-15T05:00:05;10.60;;;4.03;;
3995;SDS011;2012;49.794;9.722;2022-11-15T05:02:36;4.47;;;3.53;;
3995;SDS011;2012;49.794;9.722;2022-11-15T05:05:21;5.43;;;3.67;;
3995;SDS011;2012;49.794;9.722;2022-11-15T05:07:49;5.63;;;3.97;;
3995;SDS011;2012;49.794;9.722;2022-11-15T05:10:16;4.63;;;3.37;;
3995;SDS011;2012;49.794;9.722;2022-11-15T05:12:43;7.87;;;3.27;;
3995;SDS011;2012;49.794;9.722;2022-11-15T05:15:09;5.23;;;3.13;;
3995;SDS011;2012;49.794;9.722;2022-11-15T05:17:36;6.90;;;3.50;;
3995;SDS011;2012;49.794;9.722;2022-11-15T05:20:03;7.67;;;4.10;;
3995;SDS011;2012;49.794;9.722;2022-11-15T05:22:30;6.13;;;3.30;;
3995;SDS011;2012;49.794;9.722;2022-11-15T05:24:57;5.90;;;3.67;;
3995;SDS011;2012;49.794;9.722;2022-11-15T05:27:23;8.87;;;3.60;;
3995;SDS011;2012;49.794;9.722;2022-11-15T05:29:50;5.27;;;4.00;;
3995;SDS011;2012;49.794;9.722;2022-11-15T05:32:17;4.20;;;3.43;;
3995;SDS011;2012;49.794;9.722;2022-11-15T05:34:44;5.70;;;4.20;;
3995;SDS011;2012;49.794;9.722;2022-11-15T05:37:13;6.00;;;4.23;;
3995;SDS011;2012;49.794;9.722;2022-11-15T05:39:40;6.03;;;4.03;;
3995;SDS011;2012;49.794;9.722;2022-11-15T05:44:36;4.03;;;3.63;;
3995;SDS011;2012;49.794;9.722;2022-11-15T05:47:04;4.13;;;3.70;;
3995;SDS011;2012;49.794;9.722;2022-11-15T05:49:34;5.83;;;3.90;;
3995;SDS011;2012;49.794;9.722;2022-11-15T05:52:04;6.50;;;5.00;;
3995;SDS011;2012;49.794;9.722;2022-11-15T05:54:33;6.47;;;5.50;;
3995;SDS011;2012;49.794;9.722;2022-11-15T05:57:03;9.47;;;5.97;;
3995;SDS011;2012;49.794;9.722;2022-11-15T05:59:30;7.83;;;6.00;;
3995;SDS011;2012;49.794;9.722;2022-11-15T06:01:59;10.10;;;7.37;;
3995;SDS011;2012;49.794;9.722;2022-11-15T06:04:26;12.63;;;5.40;;
3995;SDS011;2012;49.794;9.722;2022-11-15T06:06:53;10.10;;;6.63;;
3995;SDS011;2012;49.794;9.722;2022-11-15T06:09:19;10.57;;;6.93;;
3995;SDS011;2012;49.794;9.722;2022-11-15T06:11:46;11.63;;;5.40;;
3995;SDS011;2012;49.794;9.722;2022-11-15T06:14:14;7.10;;;4.53;;
3995;SDS011;2012;49.794;9.722;2022-11-15T06:16:40;6.20;;;4.57;;
3995;SDS011;2012;49.794;9.722;2022-11-15T06:19:07;6.73;;;5.17;;
3995;SDS011;2012;49.794;9.722;2022-11-15T06:21:34;5.33;;;4.03;;
3995;SDS011;2012;49.794;9.722;2022-11-15T06:24:00;5.07;;;4.23;;
3995;SDS011;2012;49.794;9.722;2022-11-15T06:26:27;7.10;;;4.83;;
3995;SDS011;2012;49.794;9.722;2022-11-15T06:28:54;8.23;;;3.70;;
3995;SDS011;2012;49.794;9.722;2022-11-15T06:31:21;5.97;;;4.20;;
3995;SDS011;2012;49.794;9.722;2022-11-15T06:33:47;6.80;;;3.80;;
3995;SDS011;2012;49.794;9.722;2022-11-15T06:36:15;9.23;;;6.43;;
3995;SDS011;2012;49.794;9.722;2022-11-15T06:38:43;9.17;;;7.43;;
3995;SDS011;2012;49.794;9.722;2022-11-15T06:41:11;14.20;;;7.70;;
3995;SDS011;2012;49.794;9.722;2022-11-15T06:43:39;11.43;;;7.40;;
3995;SDS011;2012;49.794;9.722;2022-11-15T06:46:06;11.23;;;6.97;;
3995;SDS011;2012;49.794;9.722;2022-11-15T06:48:34;11.93;;;6.33;;
3995;SDS011;2012;49.794;9.722;2022-11-15T06:51:01;9.30;;;5.43;;
3995;SDS011;2012;49.794;9.722;2022-11-15T06:53:29;9.00;;;6.00;;
3995;SDS011;2012;49.794;9.722;2022-11-15T06:56:04;9.97;;;5.80;;
3995;SDS011;2012;49.794;9.722;2022-11-15T06:58:31;12.03;;;6.90;;
3995;SDS011;2012;49.794;9.722;2022-11-15T07:00:59;12.90;;;6.40;;
3995;SDS011;2012;49.794;9.722;2022-11-15T07:03:27;8.20;;;6.57;;
3995;SDS011;2012;49.794;9.722;2022-11-15T07:05:55;8.17;;;6.30;;
3995;SDS011;2012;49.794;9.722;2022-11-15T07:08:31;7.73;;;5.60;;
3995;SDS011;2012;49.794;9.722;2022-11-15T07:10:59;21.40;;;8.17;;
3995;SDS011;2012;49.794;9.722;2022-11-15T07:13:28;12.70;;;7.80;;
3995;SDS011;2012;49.794;9.722;2022-11-15T07:16:07;14.60;;;8.47;;
3995;SDS011;2012;49.794;9.722;2022-11-15T07:18:35;12.73;;;8.00;;
3995;SDS011;2012;49.794;9.722;2022-11-15T07:21:07;15.67;;;9.53;;
3995;SDS011;2012;49.794;9.722;2022-11-15T07:23:36;21.87;;;9.17;;
3995;SDS011;2012;49.794;9.722;2022-11-15T07:26:04;15.10;;;9.13;;
3995;SDS011;2012;49.794;9.722;2022-11-15T07:28:31;16.70;;;9.00;;
3995;SDS011;2012;49.794;9.722;2022-11-15T07:31:01;13.77;;;9.27;;
3995;SDS011;2012;49.794;9.722;2022-11-15T07:33:29;14.93;;;8.20;;
3995;SDS011;2012;49.794;9.722;2022-11-15T07:35:58;11.23;;;6.70;;
3995;SDS011;2012;49.794;9.722;2022-11-15T07:38:28;8.17;;;6.50;;
3995;SDS011;2012;49.794;9.722;2022-11-15T07:40:58;11.67;;;6.27;;
3995;SDS011;2012;49.794;9.722;2022-11-15T07:43:27;8.97;;;6.10;;
3995;SDS011;2012;49.794;9.722;2022-11-15T07:45:54;9.60;;;5.10;;
3995;SDS011;2012;49.794;9.722;2022-11-15T07:48:24;9.63;;;6.30;;
3995;SDS011;2012;49.794;9.722;2022-11-15T07:51:05;11.50;;;5.83;;
3995;SDS011;2012;49.794;9.722;2022-11-15T07:53:39;11.00;;;5.43;;
3995;SDS011;2012;49.794;9.722;2022-11-15T07:56:06;7.10;;;4.90;;
3995;SDS011;2012;49.794;9.722;2022-11-15T07:58:33;9.83;;;5.80;;
3995;SDS011;2012;49.794;9.722;2022-11-15T08:01:04;11.00;;;5.40;;
3995;SDS011;2012;49.794;9.722;2022-11-15T08:03:32;9.00;;;5.53;;
3995;SDS011;2012;49.794;9.722;2022-11-15T08:06:00;18.33;;;7.13;;
3995;SDS011;2012;49.794;9.722;2022-11-15T08:08:27;10.07;;;5.77;;
3995;SDS011;2012;49.794;9.722;2022-11-15T08:10:54;10.13;;;5.60;;
3995;SDS011;2012;49.794;9.722;2022-11-15T08:13:20;15.17;;;5.63;;
3995;SDS011;2012;49.794;9.722;2022-11-15T08:15:47;10.33;;;5.70;;
3995;SDS011;2012;49.794;9.722;2022-11-15T08:18:21;10.60;;;5.77;;
3995;SDS011;2012;49.794;9.722;2022-11-15T08:20:48;13.13;;;6.13;;
3995;SDS011;2012;49.794;9.722;2022-11-15T08:23:15;17.03;;;5.40;;
3995;SDS011;2012;49.794;9.722;2022-11-15T08:25:41;20.33;;;5.33;;
3995;SDS011;2012;49.794;9.722;2022-11-15T08:28:09;12.80;;;4.97;;
3995;SDS011;2012;49.794;9.722;2022-11-15T08:30:37;14.17;;;6.00;;
3995;SDS011;2012;49.794;9.722;2022-11-15T08:33:11;10.57;;;5.63;;
3995;SDS011;2012;49.794;9.722;2022-11-15T08:35:40;7.97;;;5.90;;
3995;SDS011;2012;49.794;9.722;2022-11-15T08:38:07;13.97;;;5.93;;
3995;SDS011;2012;49.794;9.722;2022-11-15T08:40:34;12.30;;;6.17;;
3995;SDS011;2012;49.794;9.722;2022-11-15T08:43:01;12.10;;;5.67;;
3995;SDS011;2012;49.794;9.722;2022-11-15T08:45:29;19.37;;;5.93;;
3995;SDS011;2012;49.794;9.722;2022-11-15T08:47:57;8.67;;;4.87;;
3995;SDS011;2012;49.794;9.722;2022-11-15T08:50:23;13.43;;;4.97;;
3995;SDS011;2012;49.794;9.722;2022-11-15T08:52:50;8.57;;;4.60;;
3995;SDS011;2012;49.794;9.722;2022-11-15T08:55:17;12.13;;;5.23;;
3995;SDS011;2012;49.794;9.722;2022-11-15T08:57:44;8.03;;;4.83;;
3995;SDS011;2012;49.794;9.722;2022-11-15T09:00:11;9.10;;;5.43;;
3995;SDS011;2012;49.794;9.722;2022-11-15T09:02:39;15.80;;;6.03;;
3995;SDS011;2012;49.794;9.722;2022-11-15T09:05:06;8.80;;;5.13;;
3995;SDS011;2012;49.794;9.722;2022-11-15T09:07:33;5.80;;;4.30;;
3995;SDS011;2012;49.794;9.722;2022-11-15T09:10:00;10.43;;;5.50;;
3995;SDS011;2012;49.794;9.722;2022-11-15T09:12:27;7.97;;;5.63;;
3995;SDS011;2012;49.794;9.722;2022-11-15T09:14:54;10.30;;;6.53;;
3995;SDS011;2012;49.794;9.722;2022-11-15T09:17:20;12.27;;;6.17;;
3995;SDS011;2012;49.794;9.722;2022-11-15T09:19:50;20.23;;;6.93;;
3995;SDS011;2012;49.794;9.722;2022-11-15T09:22:17;23.47;;;6.80;;
3995;SDS011;2012;49.794;9.722;2022-11-15T09:24:44;20.60;;;6.40;;
3995;SDS011;2012;49.794;9.722;2022-11-15T09:27:11;13.83;;;6.17;;
3995;SDS011;2012;49.794;9.722;2022-11-15T09:29:38;11.23;;;6.10;;
3995;SDS011;2012;49.794;9.722;2022-11-15T09:32:05;11.43;;;6.77;;
3995;SDS011;2012;49.794;9.722;2022-11-15T09:34:32;10.00;;;5.67;;
3995;SDS011;2012;49.794;9.722;2022-11-15T09:36:59;6.53;;;4.80;;
3995;SDS011;2012;49.794;9.722;2022-11-15T09:39:25;9.83;;;5.87;;
3995;SDS011;2012;49.794;9.722;2022-11-15T09:44:44;10.00;;;6.60;;
3995;SDS011;2012;49.794;9.722;2022-11-15T09:50:09;10.00;;;5.60;;
3995;SDS011;2012;49.794;9.722;2022-11-15T09:52:39;11.37;;;6.50;;
3995;SDS011;2012;49.794;9.722;2022-11-15T09:55:10;12.30;;;5.70;;
3995;SDS011;2012;49.794;9.722;2022-11-15T09:57:50;13.23;;;5.97;;
3995;SDS011;2012;49.794;9.722;2022-11-15T10:03:56;12.80;;;5.73;;
3995;SDS011;2012;49.794;9.722;2022-11-15T10:06:10;9.40;;;5.23;;
3995;SDS011;2012;49.794;9.722;2022-11-15T10:08:54;12.50;;;4.90;;
3995;SDS011;2012;49.794;9.722;2022-11-15T10:11:28;12.73;;;6.10;;
3995;SDS011;2012;49.794;9.722;2022-11-15T10:14:22;15.60;;;6.60;;
3995;SDS011;2012;49.794;9.722;2022-11-15T10:22:25;14.60;;;5.60;;
3995;SDS011;2012;49.794;9.722;2022-11-15T10:27:44;21.33;;;5.93;;
3995;SDS011;2012;49.794;9.722;2022-11-15T10:30:28;14.67;;;7.13;;
3995;SDS011;2012;49.794;9.722;2022-11-15T10:32:58;12.43;;;6.83;;
3995;SDS011;2012;49.794;9.722;2022-11-15T10:35:45;17.40;;;7.10;;
3995;SDS011;2012;49.794;9.722;2022-11-15T10:38:12;15.60;;;6.67;;
3995;SDS011;2012;49.794;9.722;2022-11-15T10:40:39;19.63;;;6.40;;
3995;SDS011;2012;49.794;9.722;2022-11-15T10:45:36;15.40;;;7.53;;
3995;SDS011;2012;49.794;9.722;2022-11-15T10:50:41;14.50;;;7.07;;
3995;SDS011;2012;49.794;9.722;2022-11-15T10:55:51;13.23;;;6.07;;
3995;SDS011;2012;49.794;9.722;2022-11-15T11:01:08;16.63;;;6.83;;
3995;SDS011;2012;49.794;9.722;2022-11-15T11:03:44;15.97;;;7.03;;
3995;SDS011;2012;49.794;9.722;2022-11-15T11:08:40;16.13;;;6.47;;
3995;SDS011;2012;49.794;9.722;2022-11-15T11:11:24;14.50;;;5.90;;
3995;SDS011;2012;49.794;9.722;2022-11-15T11:13:51;25.47;;;7.07;;
3995;SDS011;2012;49.794;9.722;2022-11-15T11:27:24;16.20;;;6.83;;
3995;SDS011;2012;49.794;9.722;2022-11-15T11:32:52;11.87;;;6.20;;
3995;SDS011;2012;49.794;9.722;2022-11-15T11:46:21;12.70;;;6.40;;
3995;SDS011;2012;49.794;9.722;2022-11-15T11:48:59;9.97;;;6.40;;
3995;SDS011;2012;49.794;9.722;2022-11-15T11:51:34;10.63;;;6.57;;
3995;SDS011;2012;49.794;9.722;2022-11-15T11:54:21;12.40;;;7.00;;
3995;SDS011;2012;49.794;9.722;2022-11-15T11:56:59;16.37;;;6.47;;
3995;SDS011;2012;49.794;9.722;2022-11-15T11:59:41;11.43;;;6.37;;
3995;SDS011;2012;49.794;9.722;2022-11-15T12:02:15;13.90;;;6.60;;
3995;SDS011;2012;49.794;9.722;2022-11-15T12:04:51;21.43;;;6.43;;
3995;SDS011;2012;49.794;9.722;2022-11-15T12:07:24;10.90;;;6.50;;
3995;SDS011;2012;49.794;9.722;2022-11-15T12:09:58;11.30;;;6.87;;
3995;SDS011;2012;49.794;9.722;2022-11-15T12:12:36;21.87;;;9.57;;
3995;SDS011;2012;49.794;9.722;2022-11-15T12:15:31;21.83;;;9.77;;
3995;SDS011;2012;49.794;9.722;2022-11-15T12:18:03;14.23;;;7.77;;
3995;SDS011;2012;49.794;9.722;2022-11-15T12:20:32;11.57;;;7.13;;
3995;SDS011;2012;49.794;9.722;2022-11-15T12:23:17;9.97;;;6.20;;
3995;SDS011;2012;49.794;9.722;2022-11-15T12:25:50;8.33;;;5.80;;
3995;SDS011;2012;49.794;9.722;2022-11-15T12:30:51;8.67;;;5.50;;
3995;SDS011;2012;49.794;9.722;2022-11-15T12:33:41;7.97;;;5.30;;
3995;SDS011;2012;49.794;9.722;2022-11-15T12:38:50;13.40;;;4.83;;
3995;SDS011;2012;49.794;9.722;2022-11-15T12:41:27;25.40;;;6.10;;
3995;SDS011;2012;49.794;9.722;2022-11-15T12:43:56;25.03;;;7.43;;
3995;SDS011;2012;49.794;9.722;2022-11-15T13:15:31;14.93;;;7.33;;
3995;SDS011;2012;49.794;9.722;2022-11-15T13:20:49;10.80;;;4.80;;
3995;SDS011;2012;49.794;9.722;2022-11-15T13:23:16;7.43;;;4.87;;
3995;SDS011;2012;49.794;9.722;2022-11-15T13:33:45;7.90;;;5.57;;
3995;SDS011;2012;49.794;9.722;2022-11-15T13:36:13;10.50;;;4.60;;
3995;SDS011;2012;49.794;9.722;2022-11-15T13:38:45;8.10;;;5.50;;
3995;SDS011;2012;49.794;9.722;2022-11-15T13:41:31;25.17;;;6.43;;
3995;SDS011;2012;49.794;9.722;2022-11-15T13:44:00;15.90;;;5.83;;
3995;SDS011;2012;49.794;9.722;2022-11-15T13:46:32;15.37;;;6.73;;
3995;SDS011;2012;49.794;9.722;2022-11-15T13:49:00;15.70;;;7.23;;
3995;SDS011;2012;49.794;9.722;2022-11-15T13:56:56;13.60;;;6.87;;
3995;SDS011;2012;49.794;9.722;2022-11-15T13:59:30;12.23;;;5.47;;
3995;SDS011;2012;49.794;9.722;2022-11-15T14:02:12;29.67;;;6.50;;
3995;SDS011;2012;49.794;9.722;2022-11-15T14:04:49;10.00;;;6.03;;
3995;SDS011;2012;49.794;9.722;2022-11-15T14:07:23;14.40;;;7.60;;
3995;SDS011;2012;49.794;9.722;2022-11-15T14:09:52;15.60;;;7.53;;
3995;SDS011;2012;49.794;9.722;2022-11-15T14:12:23;15.90;;;8.33;;
3995;SDS011;2012;49.794;9.722;2022-11-15T14:14:55;17.30;;;7.50;;
3995;SDS011;2012;49.794;9.722;2022-11-15T14:19:56;21.53;;;6.93;;
3995;SDS011;2012;49.794;9.722;2022-11-15T14:22:27;11.90;;;5.53;;
3995;SDS011;2012;49.794;9.722;2022-11-15T14:27:41;20.80;;;6.10;;
3995;SDS011;2012;49.794;9.722;2022-11-15T14:30:15;12.17;;;5.33;;
3995;SDS011;2012;49.794;9.722;2022-11-15T14:32:47;13.47;;;4.90;;
3995;SDS011;2012;49.794;9.722;2022-11-15T14:35:16;8.27;;;5.13;;
3995;SDS011;2012;49.794;9.722;2022-11-15T14:37:45;8.80;;;4.60;;
3995;SDS011;2012;49.794;9.722;2022-11-15T14:40:19;12.50;;;5.40;;
3995;SDS011;2012;49.794;9.722;2022-11-15T14:42:48;18.07;;;6.10;;
3995;SDS011;2012;49.794;9.722;2022-11-15T14:45:19;12.03;;;5.60;;
3995;SDS011;2012;49.794;9.722;2022-11-15T14:47:47;11.53;;;4.90;;
3995;SDS011;2012;49.794;9.722;2022-11-15T14:50:15;13.20;;;6.53;;
3995;SDS011;2012;49.794;9.722;2022-11-15T14:52:45;16.60;;;5.97;;
3995;SDS011;2012;49.794;9.722;2022-11-15T14:55:25;19.10;;;6.50;;
3995;SDS011;2012;49.794;9.722;2022-11-15T14:57:55;20.00;;;7.47;;
3995;SDS011;2012;49.794;9.722;2022-11-15T15:00:22;6.80;;;5.27;;
3995;SDS011;2012;49.794;9.722;2022-11-15T15:02:48;10.33;;;5.70;;
3995;SDS011;2012;49.794;9.722;2022-11-15T15:07:46;13.67;;;5.60;;
3995;SDS011;2012;49.794;9.722;2022-11-15T15:10:14;8.80;;;5.53;;
3995;SDS011;2012;49.794;9.722;2022-11-15T15:13:03;14.10;;;5.03;;
3995;SDS011;2012;49.794;9.722;2022-11-15T15:15:35;13.43;;;6.27;;
3995;SDS011;2012;49.794;9.722;2022-11-15T15:18:03;17.40;;;5.90;;
3995;SDS011;2012;49.794;9.722;2022-11-15T15:20:31;11.10;;;5.87;;
3995;SDS011;2012;49.794;9.722;2022-11-15T15:22:58;11.80;;;6.47;;
3995;SDS011;2012;49.794;9.722;2022-11-15T15:25:29;14.23;;;6.57;;
3995;SDS011;2012;49.794;9.722;2022-11-15T15:27:58;17.30;;;10.57;;
3995;SDS011;2012;49.794;9.722;2022-11-15T15:30:26;10.63;;;7.40;;
3995;SDS011;2012;49.794;9.722;2022-11-15T15:32:55;14.80;;;8.60;;
3995;SDS011;2012;49.794;9.722;2022-11-15T15:35:22;19.47;;;6.50;;
3995;SDS011;2012;49.794;9.722;2022-11-15T15:37:49;21.93;;;7.10;;
3995;SDS011;2012;49.794;9.722;2022-11-15T15:40:20;11.67;;;7.00;;
3995;SDS011;2012;49.794;9.722;2022-11-15T15:42:49;12.43;;;7.00;;
3995;SDS011;2012;49.794;9.722;2022-11-15T15:45:16;14.80;;;7.30;;
3995;SDS011;2012;49.794;9.722;2022-11-15T15:47:44;14.40;;;6.13;;
3995;SDS011;2012;49.794;9.722;2022-11-15T15:50:24;17.20;;;6.40;;
3995;SDS011;2012;49.794;9.722;2022-11-15T15:52:54;13.50;;;5.60;;
3995;SDS011;2012;49.794;9.722;2022-11-15T15:55:23;10.67;;;5.40;;
3995;SDS011;2012;49.794;9.722;2022-11-15T15:57:51;20.20;;;10.80;;
3995;SDS011;2012;49.794;9.722;2022-11-15T16:00:18;36.23;;;29.10;;
3995;SDS011;2012;49.794;9.722;2022-11-15T16:02:46;32.83;;;17.00;;
3995;SDS011;2012;49.794;9.722;2022-11-15T16:05:13;15.03;;;10.00;;
3995;SDS011;2012;49.794;9.722;2022-11-15T16:07:40;16.60;;;8.97;;
3995;SDS011;2012;49.794;9.722;2022-11-15T16:10:19;15.30;;;7.80;;
3995;SDS011;2012;49.794;9.722;2022-11-15T16:12:54;13.33;;;7.37;;
3995;SDS011;2012;49.794;9.722;2022-11-15T16:15:23;27.77;;;7.50;;
3995;SDS011;2012;49.794;9.722;2022-11-15T16:17:52;15.93;;;7.03;;
3995;SDS011;2012;49.794;9.722;2022-11-15T16:20:22;10.87;;;6.10;;
3995;SDS011;2012;49.794;9.722;2022-11-15T16:23:00;10.37;;;6.73;;
3995;SDS011;2012;49.794;9.722;2022-11-15T16:25:37;9.63;;;7.20;;
3995;SDS011;2012;49.794;9.722;2022-11-15T16:28:25;13.00;;;6.70;;
3995;SDS011;2012;49.794;9.722;2022-11-15T16:31:00;36.73;;;7.73;;
3995;SDS011;2012;49.794;9.722;2022-11-15T16:33:31;13.33;;;7.47;;
3995;SDS011;2012;49.794;9.722;2022-11-15T16:35:59;18.97;;;7.50;;
3995;SDS011;2012;49.794;9.722;2022-11-15T16:38:26;10.53;;;7.70;;
3995;SDS011;2012;49.794;9.722;2022-11-15T16:40:52;18.67;;;7.50;;
3995;SDS011;2012;49.794;9.722;2022-11-15T16:43:19;17.23;;;7.37;;
3995;SDS011;2012;49.794;9.722;2022-11-15T16:45:46;16.70;;;6.87;;
3995;SDS011;2012;49.794;9.722;2022-11-15T16:48:24;13.53;;;7.10;;
3995;SDS011;2012;49.794;9.722;2022-11-15T16:50:55;12.77;;;6.70;;
3995;SDS011;2012;49.794;9.722;2022-11-15T16:53:24;14.53;;;7.23;;
3995;SDS011;2012;49.794;9.722;2022-11-15T16:55:52;16.83;;;6.53;;
3995;SDS011;2012;49.794;9.722;2022-11-15T16:58:20;21.47;;;8.10;;
3995;SDS011;2012;49.794;9.722;2022-11-15T17:00:51;13.40;;;6.60;;
3995;SDS011;2012;49.794;9.722;2022-11-15T17:03:19;15.93;;;6.37;;
3995;SDS011;2012;49.794;9.722;2022-11-15T17:05:46;12.17;;;5.93;;
3995;SDS011;2012;49.794;9.722;2022-11-15T17:08:13;22.77;;;6.43;;
3995;SDS011;2012;49.794;9.722;2022-11-15T17:10:40;15.60;;;6.70;;
3995;SDS011;2012;49.794;9.722;2022-11-15T17:13:13;9.80;;;5.53;;
3995;SDS011;2012;49.794;9.722;2022-11-15T17:15:40;11.23;;;6.10;;
3995;SDS011;2012;49.794;9.722;2022-11-15T17:18:09;10.10;;;6.07;;
3995;SDS011;2012;49.794;9.722;2022-11-15T17:20:39;8.50;;;5.53;;
3995;SDS011;2012;49.794;9.722;2022-11-15T17:23:09;11.03;;;6.43;;
3995;SDS011;2012;49.794;9.722;2022-11-15T17:25:39;18.33;;;6.17;;
3995;SDS011;2012;49.794;9.722;2022-11-15T17:28:06;18.20;;;6.50;;
3995;SDS011;2012;49.794;9.722;2022-11-15T17:30:33;14.00;;;6.50;;
3995;SDS011;2012;49.794;9.722;2022-11-15T17:33:00;16.27;;;5.90;;
3995;SDS011;2012;49.794;9.722;2022-11-15T17:35:27;18.33;;;6.20;;
3995;SDS011;2012;49.794;9.722;2022-11-15T17:37:54;14.90;;;6.47;;
3995;SDS011;2012;49.794;9.722;2022-11-15T17:40:20;21.43;;;6.77;;
3995;SDS011;2012;49.794;9.722;2022-11-15T17:42:47;20.53;;;6.37;;
3995;SDS011;2012;49.794;9.722;2022-11-15T17:45:14;13.47;;;6.90;;
3995;SDS011;2012;49.794;9.722;2022-11-15T17:47:40;10.97;;;6.73;;